Currently N/A°F in Beaumont, California, USA
N/A°F Alert
77°F / 77°F
N/A
0.00"
Friday, August 14, 2020 3:46 PM PDT

Beaumont, California Weather Summary
Last 36 Hours

Temperature Winds Hourly Humidity Dewpoint
Time Report Norm Report Norm Max Gusts Precip. Rpt. Norm Rpt. Norm Pressure
1,2Fri 12:00 AM  77.4°F  70°F  2 mph W  1 mph  3 mph  0.00"  31%  53%  43°F  52°F  29.83"
Thu 11:00 PM  78.4°F  71°F  calm  1 mph  8 mph  0.00"  30%  52%  43°F  52°F  29.83"
Thu 10:00 PM  81.1°F  73°F  2 mph SW  1 mph  3 mph  0.00"  29%  50%  45°F  52°F  29.84"
Thu 09:00 PM  81.9°F  76°F  calm  2 mph  9 mph  0.00"  26%  46%  42°F  52°F  29.83"
Thu 08:00 PM  81.3°F  78°F  2 mph NW  4 mph  12 mph  0.00"  29%  42%  45°F  53°F  29.82"
Thu 07:00 PM  84.9°F  82°F  3 mph SW  3 mph  10 mph  0.00"  23%  37%  42°F  52°F  29.81"
Thu 06:00 PM  88.3°F  86°F  5 mph W  3 mph  17 mph  0.00"  21%  32%  42°F  51°F  29.80"
Thu 05:00 PM  88.0°F  88°F  2 mph SW  4 mph  17 mph  0.00"  23%  29%  44°F  51°F  29.81"
Thu 04:00 PM  90.1°F  89°F  3 mph NW  4 mph  14 mph  0.00"  19%  28%  41°F  50°F  29.81"
Thu 03:00 PM  91.8°F  89°F  5 mph NW  4 mph  15 mph  0.00"  19%  28%  42°F  50°F  29.81"
Thu 02:00 PM  91.9°F  89°F  4 mph NW  4 mph  12 mph  0.00"  19%  28%  42°F  51°F  29.83"
Thu 01:00 PM  90.3°F  88°F  4 mph SW  4 mph  10 mph  0.00"  18%  29%  40°F  50°F  29.84"
Thu 12:00 PM  89.2°F  86°F  4 mph SW  4 mph  12 mph  0.00"  16%  31%  36°F  51°F  29.85"
Thu 11:00 AM  88.9°F  84°F  5 mph SE  4 mph  8 mph  0.00"  16%  33%  35°F  51°F  29.86"
Thu 10:00 AM  80.4°F  81°F  4 mph S  4 mph  5 mph  0.00"  21%  36%  35°F  51°F  29.86"
Thu 09:00 AM  75.6°F  78°F  1 mph SE  3 mph  14 mph  0.00"  25%  40%  36°F  51°F  29.85"
Thu 08:00 AM  82.4°F  76°F  7 mph N  2 mph  17 mph  0.00"  20%  44%  36°F  51°F  29.84"
Thu 07:00 AM  75.0°F  71°F  calm  1 mph  9 mph  0.00"  21%  47%  31°F  49°F  29.84"
Thu 06:00 AM  79.9°F  69°F  2 mph W  2 mph  8 mph  0.00"  8%  48%  11°F  48°F  29.83"
Thu 05:00 AM  77.7°F  69°F  1 mph W  2 mph  9 mph  0.00"  15%  48%  25°F  48°F  29.83"
Thu 04:00 AM  76.3°F  69°F  calm  2 mph  10 mph  0.00"  17%  50%  27°F  49°F  29.83"
Thu 03:00 AM  75.9°F  69°F  3 mph SE  1 mph  12 mph  0.00"  34%  50%  45°F  49°F  29.83"
Thu 02:00 AM  70.0°F  69°F  1 mph SW  1 mph  3 mph  0.00"  30%  52%  36°F  50°F  29.83"
Thu 01:00 AM  70.3°F  69°F  calm  1 mph  3 mph  0.00"  37%  53%  42°F  51°F  29.85"
Thu 12:00 AM  71.8°F  70°F  calm  1 mph  6 mph  0.00"  40%  53%  45°F  52°F  29.85"
Wed 11:00 PM  72.9°F  71°F  calm  1 mph  12 mph  0.00"  40%  52%  46°F  52°F  29.84"
Wed 10:00 PM  74.5°F  73°F  3 mph NW  1 mph  5 mph  0.00"  33%  49%  42°F  52°F  29.84"
Wed 09:00 PM  78.6°F  75°F  1 mph SW  2 mph  13 mph  0.00"  33%  46%  46°F  52°F  29.83"
Wed 08:00 PM  82.0°F  78°F  7 mph W  4 mph  12 mph  0.00"  26%  42%  43°F  52°F  29.80"
Wed 07:00 PM  85.6°F  82°F  3 mph W  3 mph  13 mph  0.00"  22%  37%  41°F  52°F  29.80"
Wed 06:00 PM  89.1°F  86°F  4 mph NW  4 mph  14 mph  0.00"  18%  32%  39°F  51°F  29.79"
Wed 05:00 PM  92.5°F  88°F  3 mph NW  4 mph  15 mph  0.00"  16%  28%  38°F  50°F  29.80"
Wed 04:00 PM  93.7°F  89°F  3 mph W  4 mph  14 mph  0.00"  10%  28%  27°F  50°F  29.81"
Wed 03:00 PM  94.6°F  89°F  3 mph N  4 mph  12 mph  0.00"  10%  28%  28°F  50°F  29.82"
Wed 02:00 PM  94.6°F  88°F  3 mph SW  4 mph  12 mph  0.00"  10%  28%  28°F  50°F  29.83"
Wed 01:00 PM  93.6°F  88°F  5 mph NW  4 mph  12 mph  0.00"  9%  28%  24°F  50°F  29.84"
Wed 12:00 PM  91.6°F  86°F  3 mph SE  4 mph  10 mph  0.00"  9%  30%  23°F  50°F  29.87"

  1. Current weather data. No green row appears if the current weather data is also the high or low for the current day.
  2. High temperature for the current day.
  3. Low temperature for the current day.

The Beaumont, California weather pages are a service of WeatherCurrents. Cherry Valley is located in northern Riverside County, California, a community of the northern part of Beaumont, along the Interstate 10 highway, in the San Gorgonio pass area, between the communities of Calimesa, Banning.
Copyright ©2020  WeatherCurrents. All rights reserved. - Submit questions and comments - Privacy Policy

This page automatically refreshes every 10 minutes.